createdAt,value
2023-03-01T00:00:08.180Z,101460.66
2023-03-01T00:00:39.911Z,101454.63
2023-03-01T00:01:20.580Z,101458.97
2023-03-01T00:01:52.237Z,101457.25
2023-03-01T00:02:24.004Z,101463.28
2023-03-01T00:02:56.136Z,101465.00
2023-03-01T00:03:28.365Z,101458.09
2023-03-01T00:04:00.695Z,101462.44
2023-03-01T00:04:32.408Z,101462.44
2023-03-01T00:05:05.451Z,101465.88
2023-03-01T00:05:37.148Z,101465.00
2023-03-01T00:06:09.274Z,101460.75
2023-03-01T00:06:42.956Z,101459.13
2023-03-01T00:07:14.604Z,101466.81
2023-03-01T00:07:46.284Z,101465.94
2023-03-01T00:08:17.948Z,101461.56
2023-03-01T00:08:50.381Z,101465.00
2023-03-01T00:09:22.027Z,101465.88
2023-03-01T00:09:53.721Z,101474.47
2023-03-01T00:10:25.391Z,101467.56
2023-03-01T00:11:07.905Z,101467.59
2023-03-01T00:11:39.900Z,101465.00
2023-03-01T00:12:12.125Z,101469.25
2023-03-01T00:12:43.863Z,101462.38
2023-03-01T00:13:15.531Z,101463.22
2023-03-01T00:13:50.101Z,101463.22
2023-03-01T00:14:21.941Z,101467.47
2023-03-01T00:14:53.592Z,101464.88
2023-03-01T00:15:25.268Z,101466.63
2023-03-01T00:15:57.060Z,101470.06
2023-03-01T00:16:43.893Z,101467.47
2023-03-01T00:17:15.612Z,101470.91
2023-03-01T00:17:47.272Z,101465.75
2023-03-01T00:18:18.941Z,101464.03
2023-03-01T00:18:51.654Z,101467.47
2023-03-01T00:19:23.325Z,101468.31
2023-03-01T00:19:54.946Z,101463.16
2023-03-01T00:20:26.609Z,101470.88
2023-03-01T00:20:58.342Z,101470.03
2023-03-01T00:21:30.059Z,101465.75
2023-03-01T00:22:01.741Z,101466.63
2023-03-01T00:22:33.364Z,101470.91
2023-03-01T00:23:05.022Z,101468.31
2023-03-01T00:23:37.005Z,101474.38
2023-03-01T00:24:09.587Z,101478.69
2023-03-01T00:24:41.356Z,101469.22
2023-03-01T00:25:13.013Z,101471.78
2023-03-01T00:25:45.067Z,101470.91
2023-03-01T00:26:18.752Z,101482.16
2023-03-01T00:26:54.240Z,101475.25
2023-03-01T00:27:25.917Z,101471.78
2023-03-01T00:27:57.580Z,101466.63
2023-03-01T00:28:29.241Z,101470.94
2023-03-01T00:29:01.285Z,101479.59
2023-03-01T00:29:33.006Z,101477.81
2023-03-01T00:30:06.176Z,101481.25
2023-03-01T00:30:38.047Z,101481.25
2023-03-01T00:31:21.152Z,101479.53
2023-03-01T00:31:53.014Z,101477.78
2023-03-01T00:32:24.809Z,101482.97
2023-03-01T00:32:56.455Z,101479.50
2023-03-01T00:33:28.114Z,101477.75
2023-03-01T00:34:02.743Z,101473.44
2023-03-01T00:34:34.486Z,101472.56
2023-03-01T00:35:06.782Z,101475.97
2023-03-01T00:35:38.650Z,101478.53
2023-03-01T00:36:12.489Z,101475.09
2023-03-01T00:36:44.301Z,101474.25
2023-03-01T00:37:15.921Z,101474.28
2023-03-01T00:37:47.652Z,101476.88
2023-03-01T00:38:19.357Z,101471.69
2023-03-01T00:38:51.378Z,101476.00
2023-03-01T00:39:23.035Z,101470.84
2023-03-01T00:39:54.682Z,101481.19
2023-03-01T00:40:28.260Z,101473.44
2023-03-01T00:41:05.464Z,101476.88
2023-03-01T00:41:37.108Z,101472.56
2023-03-01T00:42:08.770Z,101472.56
2023-03-01T00:42:40.396Z,101476.88
2023-03-01T00:43:12.036Z,101476.00
2023-03-01T00:43:45.323Z,101469.09
2023-03-01T00:44:16.967Z,101463.09
2023-03-01T00:44:48.843Z,101461.34
2023-03-01T00:45:20.767Z,101468.22
2023-03-01T00:45:52.433Z,101467.38
2023-03-01T00:46:26.990Z,101469.16
2023-03-01T00:46:58.710Z,101461.41
2023-03-01T00:47:30.558Z,101458.81
2023-03-01T00:48:02.304Z,101457.97
2023-03-01T00:48:35.000Z,101464.88
2023-03-01T00:49:06.780Z,101461.41
2023-03-01T00:49:38.452Z,101461.41
2023-03-01T00:50:11.055Z,101457.09
2023-03-01T00:50:42.684Z,101458.81
2023-03-01T00:51:26.626Z,101456.16
2023-03-01T00:51:58.362Z,101462.19
2023-03-01T00:52:29.988Z,101466.53
2023-03-01T00:53:01.725Z,101461.31
2023-03-01T00:53:34.015Z,101457.91
2023-03-01T00:54:05.725Z,101456.16
2023-03-01T00:54:37.376Z,101465.69
2023-03-01T00:55:09.300Z,101448.41
2023-03-01T00:55:40.934Z,101455.25
2023-03-01T00:56:14.982Z,101454.41
2023-03-01T00:56:46.659Z,101460.41
2023-03-01T00:57:18.342Z,101456.13
2023-03-01T00:57:50.063Z,101453.53
2023-03-01T00:58:21.887Z,101451.75
2023-03-01T00:58:53.545Z,101448.28
2023-03-01T00:59:25.172Z,101451.72
2023-03-01T00:59:57.014Z,101450.03
2023-03-01T01:00:29.198Z,101451.78
2023-03-01T01:01:01.065Z,101445.78
2023-03-01T01:01:32.826Z,101448.38
2023-03-01T01:02:04.574Z,101444.09
2023-03-01T01:02:36.725Z,101444.97
2023-03-01T01:03:08.396Z,101446.72
2023-03-01T01:03:40.048Z,101448.41
2023-03-01T01:04:14.276Z,101444.09
2023-03-01T01:04:46.332Z,101445.84
2023-03-01T01:05:21.810Z,101442.44
2023-03-01T01:05:54.665Z,101442.41
2023-03-01T01:06:48.361Z,101449.28
2023-03-01T01:07:21.138Z,101445.03
2023-03-01T01:07:52.815Z,101444.16
2023-03-01T01:08:24.472Z,101442.44
2023-03-01T01:08:56.896Z,101438.16
2023-03-01T01:09:28.629Z,101439.94
2023-03-01T01:10:00.376Z,101449.38
2023-03-01T01:10:32.071Z,101445.91
2023-03-01T01:11:03.775Z,101439.91
2023-03-01T01:11:37.419Z,101445.06
2023-03-01T01:12:09.350Z,101440.75
2023-03-01T01:12:40.992Z,101440.75
2023-03-01T01:13:13.179Z,101444.25
2023-03-01T01:13:47.795Z,101445.97
2023-03-01T01:14:20.293Z,101440.81
2023-03-01T01:14:51.968Z,101433.03
2023-03-01T01:15:23.601Z,101439.13
2023-03-01T01:15:55.271Z,101432.28
2023-03-01T01:16:29.310Z,101436.56
2023-03-01T01:17:01.256Z,101441.72
2023-03-01T01:17:32.991Z,101436.59
2023-03-01T01:18:04.626Z,101431.47
2023-03-01T01:18:36.778Z,101434.94
2023-03-01T01:19:08.568Z,101426.31
2023-03-01T01:19:40.348Z,101437.50
2023-03-01T01:20:13.398Z,101435.81
2023-03-01T01:20:44.999Z,101436.66
2023-03-01T01:21:19.348Z,101435.78
2023-03-01T01:21:51.036Z,101438.28
2023-03-01T01:22:22.657Z,101433.13
2023-03-01T01:22:54.682Z,101431.38
2023-03-01T01:23:26.351Z,101432.19
2023-03-01T01:23:58.673Z,101440.84
2023-03-01T01:24:30.661Z,101442.56
2023-03-01T01:25:02.358Z,101432.25
2023-03-01T01:25:37.290Z,101432.19
2023-03-01T01:26:31.186Z,101433.00
2023-03-01T01:27:03.151Z,101433.03
2023-03-01T01:27:34.862Z,101434.72
2023-03-01T01:28:06.490Z,101431.25
2023-03-01T01:28:38.545Z,101424.34
2023-03-01T01:29:11.074Z,101432.97
2023-03-01T01:29:43.127Z,101427.81
2023-03-01T01:30:14.806Z,101425.22
2023-03-01T01:30:46.509Z,101429.53
2023-03-01T01:31:19.421Z,101424.44
2023-03-01T01:31:51.178Z,101425.25
2023-03-01T01:32:25.451Z,101420.06
2023-03-01T01:32:58.382Z,101421.78
2023-03-01T01:33:30.027Z,101424.41
2023-03-01T01:34:03.760Z,101427.84
2023-03-01T01:34:35.398Z,101420.94
2023-03-01T01:35:07.335Z,101421.81
2023-03-01T01:35:38.989Z,101414.97
2023-03-01T01:36:11.383Z,101425.31
2023-03-01T01:36:43.720Z,101420.13
2023-03-01T01:37:15.400Z,101415.84
2023-03-01T01:37:47.069Z,101425.41
2023-03-01T01:38:18.725Z,101414.19
2023-03-01T01:38:50.466Z,101421.91
2023-03-01T01:39:23.107Z,101418.47
2023-03-01T01:39:54.727Z,101415.91
2023-03-01T01:40:26.381Z,101415.91
2023-03-01T01:40:58.082Z,101415.94
2023-03-01T01:41:30.211Z,101421.13
2023-03-01T01:42:02.842Z,101424.56
2023-03-01T01:42:34.488Z,101417.66
2023-03-01T01:43:08.897Z,101419.38
2023-03-01T01:43:45.700Z,101415.09
2023-03-01T01:44:24.030Z,101415.94
2023-03-01T01:45:26.384Z,101409.03
2023-03-01T01:46:02.256Z,101420.19
2023-03-01T01:46:39.828Z,101409.00
2023-03-01T01:47:20.912Z,101409.88
2023-03-01T01:47:55.649Z,101408.09
2023-03-01T01:48:41.421Z,101413.25
2023-03-01T01:49:25.353Z,101411.53
2023-03-01T01:49:58.054Z,101415.00
2023-03-01T01:50:38.722Z,101415.84
2023-03-01T01:51:23.706Z,101409.00
2023-03-01T01:52:02.947Z,101406.47
2023-03-01T01:52:39.132Z,101408.16
2023-03-01T01:53:16.108Z,101405.56
2023-03-01T01:53:54.379Z,101412.44
2023-03-01T01:54:34.096Z,101402.13
2023-03-01T01:55:12.682Z,101398.66
2023-03-01T01:55:48.411Z,101401.19
2023-03-01T01:56:22.052Z,101400.31
2023-03-01T01:56:59.979Z,101400.38
2023-03-01T01:57:57.372Z,101397.81
2023-03-01T01:58:31.530Z,101396.13
2023-03-01T01:59:03.462Z,101397.84
2023-03-01T01:59:35.650Z,101391.78
2023-03-01T02:00:12.821Z,101400.38
2023-03-01T02:00:44.707Z,101388.31
2023-03-01T02:01:16.504Z,101393.56
2023-03-01T02:01:48.183Z,101393.59
2023-03-01T02:02:20.468Z,101388.41
2023-03-01T02:02:58.991Z,101382.41
2023-03-01T02:03:38.555Z,101388.38
2023-03-01T02:04:10.748Z,101386.63
2023-03-01T02:04:42.628Z,101381.47
2023-03-01T02:06:09.499Z,101389.22
2023-03-01T02:06:52.020Z,101388.38
2023-03-01T02:07:25.729Z,101388.38
2023-03-01T02:07:59.194Z,101389.22
2023-03-01T02:08:34.224Z,101385.78
2023-03-01T02:09:12.338Z,101388.38
2023-03-01T02:09:48.960Z,101390.97
2023-03-01T02:10:23.867Z,101390.97
2023-03-01T02:10:57.212Z,101381.50
2023-03-01T02:11:31.625Z,101385.81
2023-03-01T02:12:05.277Z,101389.22
2023-03-01T02:12:38.930Z,101391.81
2023-03-01T02:13:11.815Z,101393.56
2023-03-01T02:13:44.003Z,101391.00
2023-03-01T02:14:17.106Z,101385.91
2023-03-01T02:14:48.810Z,101390.25
2023-03-01T02:15:20.520Z,101392.84
2023-03-01T02:15:52.467Z,101393.75
2023-03-01T02:16:24.269Z,101389.50
2023-03-01T02:16:56.512Z,101391.16
2023-03-01T02:17:28.531Z,101389.44
2023-03-01T02:18:00.630Z,101391.22
2023-03-01T02:18:32.335Z,101390.34
2023-03-01T02:19:06.249Z,101399.00
2023-03-01T02:19:40.445Z,101392.97
2023-03-01T02:20:33.207Z,101398.94
2023-03-01T02:21:07.613Z,101397.19
2023-03-01T02:22:07.412Z,101401.47
2023-03-01T02:22:40.445Z,101397.13
2023-03-01T02:23:12.276Z,101401.44
2023-03-01T02:23:44.512Z,101398.84
2023-03-01T02:24:37.441Z,101395.41
2023-03-01T02:25:09.340Z,101397.13
2023-03-01T02:26:05.631Z,101398.84
2023-03-01T02:26:47.712Z,101395.41
2023-03-01T02:27:27.178Z,101395.44
2023-03-01T02:28:16.962Z,101398.03
2023-03-01T02:28:48.952Z,101398.88
2023-03-01T02:29:21.875Z,101395.44
2023-03-01T02:29:53.591Z,101391.97
2023-03-01T02:30:26.711Z,101390.38
2023-03-01T02:31:17.438Z,101390.38
2023-03-01T02:31:52.328Z,101389.50
2023-03-01T02:32:26.177Z,101386.09
2023-03-01T02:33:05.520Z,101385.22
2023-03-01T02:33:40.067Z,101380.91
2023-03-01T02:34:19.494Z,101379.22
2023-03-01T02:34:56.672Z,101376.63
2023-03-01T02:35:28.538Z,101378.44
2023-03-01T02:36:02.808Z,101380.16
2023-03-01T02:36:54.820Z,101381.00
2023-03-01T02:37:28.319Z,101384.44
2023-03-01T02:38:02.627Z,101378.41
2023-03-01T02:38:34.551Z,101377.50
2023-03-01T02:39:15.443Z,101377.53
2023-03-01T02:39:51.590Z,101381.00
2023-03-01T02:40:24.105Z,101376.72
2023-03-01T02:40:57.876Z,101374.09
2023-03-01T02:41:36.353Z,101381.88
2023-03-01T02:42:08.489Z,101368.94
2023-03-01T02:42:59.977Z,101368.09
2023-03-01T02:43:33.888Z,101374.94
2023-03-01T02:44:06.712Z,101368.88
2023-03-01T02:44:38.341Z,101374.91
2023-03-01T02:45:11.729Z,101373.16
2023-03-01T02:45:53.864Z,101380.03
2023-03-01T02:46:27.179Z,101374.84
2023-03-01T02:47:04.176Z,101373.16
2023-03-01T02:47:35.814Z,101378.34
2023-03-01T02:48:07.582Z,101373.22
2023-03-01T02:48:48.651Z,101368.09
2023-03-01T02:49:29.908Z,101369.84
2023-03-01T02:50:01.580Z,101370.66
2023-03-01T02:51:27.716Z,101364.66
2023-03-01T02:52:09.716Z,101368.09
2023-03-01T02:53:02.422Z,101372.38
2023-03-01T02:53:52.036Z,101364.59
2023-03-01T02:54:36.421Z,101373.19
2023-03-01T02:55:08.445Z,101364.59
2023-03-01T02:55:40.980Z,101361.09
2023-03-01T02:56:14.020Z,101365.44
2023-03-01T02:56:49.865Z,101361.16
2023-03-01T02:57:24.211Z,101363.72
2023-03-01T02:57:57.964Z,101363.66
2023-03-01T02:58:29.645Z,101363.63
2023-03-01T02:59:01.783Z,101361.03
2023-03-01T02:59:40.413Z,101364.50
2023-03-01T03:00:23.971Z,101363.63
2023-03-01T03:00:57.711Z,101369.66
2023-03-01T03:01:38.379Z,101367.91
2023-03-01T03:02:37.211Z,101359.31
2023-03-01T03:03:09.131Z,101366.22
2023-03-01T03:03:40.841Z,101366.22
2023-03-01T03:04:19.094Z,101358.47
2023-03-01T03:04:50.749Z,101365.28
2023-03-01T03:05:25.340Z,101360.16
2023-03-01T03:05:57.002Z,101364.47
2023-03-01T03:06:28.777Z,101364.47
2023-03-01T03:07:00.539Z,101369.66
2023-03-01T03:07:32.184Z,101361.03
2023-03-01T03:08:04.721Z,101363.59
2023-03-01T03:08:36.577Z,101366.19
2023-03-01T03:09:09.059Z,101357.53
2023-03-01T03:09:40.716Z,101359.25
2023-03-01T03:10:16.587Z,101357.53
2023-03-01T03:10:48.214Z,101356.66
2023-03-01T03:11:19.902Z,101356.69
2023-03-01T03:11:51.536Z,101353.25
2023-03-01T03:12:23.178Z,101350.69
2023-03-01T03:13:15.509Z,101348.91
2023-03-01T03:13:49.150Z,101346.31
2023-03-01T03:14:20.979Z,101348.91
2023-03-01T03:14:52.649Z,101352.41
2023-03-01T03:15:25.905Z,101350.69
2023-03-01T03:15:58.240Z,101348.94
2023-03-01T03:16:31.013Z,101345.44
2023-03-01T03:17:08.053Z,101347.16
2023-03-01T03:17:44.123Z,101347.13
2023-03-01T03:18:18.652Z,101347.97
2023-03-01T03:18:50.588Z,101341.09
2023-03-01T03:19:22.330Z,101346.25
2023-03-01T03:19:54.079Z,101347.09
2023-03-01T03:20:28.350Z,101344.53
2023-03-01T03:21:00.064Z,101350.56
2023-03-01T03:21:33.856Z,101345.41
2023-03-01T03:22:05.500Z,101346.34
2023-03-01T03:22:37.306Z,101344.63
2023-03-01T03:23:09.029Z,101346.34
2023-03-01T03:23:40.716Z,101348.03
2023-03-01T03:24:12.449Z,101345.50
2023-03-01T03:24:44.073Z,101357.56
2023-03-01T03:25:17.488Z,101354.13
2023-03-01T03:25:52.992Z,101343.75
2023-03-01T03:26:25.070Z,101348.06
2023-03-01T03:26:56.710Z,101344.63
2023-03-01T03:27:29.467Z,101344.59
2023-03-01T03:28:01.159Z,101342.88
2023-03-01T03:28:34.579Z,101343.72
2023-03-01T03:29:06.289Z,101339.44
2023-03-01T03:29:37.946Z,101335.09
2023-03-01T03:30:12.899Z,101341.13
2023-03-01T03:30:45.065Z,101339.47
2023-03-01T03:31:16.873Z,101335.13
2023-03-01T03:31:48.680Z,101337.72
2023-03-01T03:32:20.496Z,101337.69
2023-03-01T03:32:54.876Z,101340.31
2023-03-01T03:33:26.524Z,101340.28
2023-03-01T03:33:59.968Z,101342.00
2023-03-01T03:34:31.748Z,101335.97
2023-03-01T03:35:10.357Z,101336.84
2023-03-01T03:35:45.477Z,101335.06
2023-03-01T03:36:22.650Z,101335.97
2023-03-01T03:37:00.360Z,101335.06
2023-03-01T03:37:50.576Z,101340.25
2023-03-01T03:38:22.866Z,101336.78
2023-03-01T03:38:54.608Z,101333.38
2023-03-01T03:39:28.169Z,101342.84
2023-03-01T03:39:59.991Z,101338.53
2023-03-01T03:40:33.320Z,101340.31
2023-03-01T03:41:08.335Z,101335.13
2023-03-01T03:41:40.049Z,101336.00
2023-03-01T03:42:12.005Z,101342.91
2023-03-01T03:42:43.862Z,101343.78
2023-03-01T03:43:22.303Z,101340.34
2023-03-01T03:43:53.944Z,101337.75
2023-03-01T03:44:25.605Z,101335.19
2023-03-01T03:44:57.275Z,101339.53
2023-03-01T03:45:28.905Z,101332.66
2023-03-01T03:46:01.609Z,101343.88
2023-03-01T03:46:33.790Z,101336.13
2023-03-01T03:47:05.632Z,101331.81
2023-03-01T03:47:37.335Z,101338.69
2023-03-01T03:48:11.029Z,101335.25
2023-03-01T03:48:45.297Z,101333.53
2023-03-01T03:49:17.029Z,101343.03
2023-03-01T03:49:48.675Z,101339.59
2023-03-01T03:50:20.357Z,101339.63
2023-03-01T03:50:54.836Z,101345.75
2023-03-01T03:51:26.452Z,101344.03
2023-03-01T03:51:58.218Z,101343.09
2023-03-01T03:52:29.875Z,101347.53
2023-03-01T03:53:02.961Z,101342.34
2023-03-01T03:53:34.790Z,101345.78
2023-03-01T03:54:06.485Z,101342.38
2023-03-01T03:54:38.158Z,101344.09
2023-03-01T03:55:12.150Z,101342.34
2023-03-01T03:55:45.410Z,101337.19
2023-03-01T03:56:17.097Z,101345.78
2023-03-01T03:56:48.711Z,101340.63
2023-03-01T03:57:20.338Z,101338.88
2023-03-01T03:57:55.111Z,101336.25
2023-03-01T03:58:27.384Z,101342.28
2023-03-01T03:58:59.092Z,101343.19
2023-03-01T03:59:30.743Z,101344.09
2023-03-01T04:00:05.763Z,101340.59
2023-03-01T04:00:44.187Z,101342.28
2023-03-01T04:01:15.844Z,101340.56
2023-03-01T04:01:47.625Z,101343.16
2023-03-01T04:02:23.212Z,101339.72
2023-03-01T04:02:57.811Z,101333.72
2023-03-01T04:03:31.252Z,101330.25
2023-03-01T04:04:05.199Z,101336.25
2023-03-01T04:04:37.031Z,101331.13
2023-03-01T04:05:11.137Z,101331.97
2023-03-01T04:05:43.162Z,101325.94
2023-03-01T04:06:15.667Z,101334.59
2023-03-01T04:06:47.326Z,101328.53
2023-03-01T04:07:18.993Z,101335.41
2023-03-01T04:08:02.094Z,101327.69
2023-03-01T04:08:34.380Z,101332.00
2023-03-01T04:09:06.028Z,101332.00
2023-03-01T04:09:37.689Z,101329.44
2023-03-01T04:10:17.996Z,101332.78
2023-03-01T04:10:53.195Z,101330.25
2023-03-01T04:11:27.677Z,101328.53
2023-03-01T04:11:59.329Z,101329.34
2023-03-01T04:12:31.099Z,101325.88
2023-03-01T04:13:03.020Z,101320.72
2023-03-01T04:13:34.650Z,101319.00
2023-03-01T04:14:06.315Z,101331.94
2023-03-01T04:14:38.070Z,101325.84
2023-03-01T04:15:16.235Z,101319.03
2023-03-01T04:15:50.234Z,101323.31
2023-03-01T04:16:22.161Z,101321.53
2023-03-01T04:16:53.856Z,101327.56
2023-03-01T04:17:25.632Z,101320.69
2023-03-01T04:17:57.352Z,101316.34
2023-03-01T04:18:29.011Z,101324.13
2023-03-01T04:19:01.534Z,101324.97
2023-03-01T04:19:37.072Z,101324.97
2023-03-01T04:20:12.110Z,101324.97
2023-03-01T04:20:44.188Z,101327.56
2023-03-01T04:21:16.289Z,101330.13
2023-03-01T04:21:47.924Z,101324.13
2023-03-01T04:22:19.765Z,101324.97
2023-03-01T04:22:59.433Z,101329.22
2023-03-01T04:23:31.175Z,101327.47
2023-03-01T04:24:04.691Z,101329.22
2023-03-01T04:24:36.968Z,101327.47
2023-03-01T04:25:08.960Z,101324.91
2023-03-01T04:25:43.119Z,101326.56
2023-03-01T04:26:14.848Z,101325.72
2023-03-01T04:26:46.510Z,101333.44
2023-03-01T04:27:18.187Z,101330.88
2023-03-01T04:27:49.896Z,101330.06
2023-03-01T04:28:36.912Z,101336.06
2023-03-01T04:29:08.563Z,101336.06
2023-03-01T04:29:40.193Z,101336.06
2023-03-01T04:30:12.266Z,101334.31
2023-03-01T04:30:43.969Z,101335.19
2023-03-01T04:31:19.420Z,101330.97
2023-03-01T04:31:51.331Z,101333.56
2023-03-01T04:32:23.063Z,101335.28
2023-03-01T04:32:54.773Z,101337.06
2023-03-01T04:33:26.822Z,101341.34
2023-03-01T04:33:58.515Z,101343.88
2023-03-01T04:34:31.054Z,101340.47
2023-03-01T04:35:02.786Z,101340.47
2023-03-01T04:35:36.186Z,101342.19
2023-03-01T04:36:09.846Z,101341.38
2023-03-01T04:36:41.617Z,101343.06
2023-03-01T04:37:13.315Z,101344.78
2023-03-01T04:37:46.079Z,101336.94
2023-03-01T04:38:19.328Z,101343.00
2023-03-01T04:38:51.301Z,101345.66
2023-03-01T04:39:22.971Z,101332.72
2023-03-01T04:39:54.697Z,101344.75
2023-03-01T04:40:26.483Z,101344.78
2023-03-01T04:40:58.095Z,101349.13
2023-03-01T04:41:29.770Z,101338.78
2023-03-01T04:42:01.583Z,101348.25
2023-03-01T04:42:33.750Z,101345.66
2023-03-01T04:43:05.596Z,101343.06
2023-03-01T04:43:38.083Z,101343.94
2023-03-01T04:44:10.486Z,101343.91
2023-03-01T04:44:42.136Z,101339.59
2023-03-01T04:45:14.140Z,101343.88
2023-03-01T04:45:46.113Z,101343.88
2023-03-01T04:46:20.069Z,101342.19
2023-03-01T04:46:51.777Z,101343.03
2023-03-01T04:47:23.420Z,101340.41
2023-03-01T04:47:55.071Z,101337.84
2023-03-01T04:48:26.717Z,101337.84
2023-03-01T04:48:58.558Z,101338.69
2023-03-01T04:49:30.485Z,101337.78
2023-03-01T04:50:02.142Z,101342.97
2023-03-01T04:50:34.142Z,101339.53
2023-03-01T04:51:06.726Z,101338.69
2023-03-01T04:51:38.734Z,101338.69
2023-03-01T04:52:10.407Z,101336.09
2023-03-01T04:52:42.473Z,101337.78
2023-03-01T04:53:14.120Z,101331.75
2023-03-01T04:53:45.822Z,101333.41
2023-03-01T04:54:17.450Z,101338.50
2023-03-01T04:54:49.118Z,101329.91
2023-03-01T04:55:20.812Z,101333.38
2023-03-01T04:55:52.494Z,101327.34
2023-03-01T04:56:24.253Z,101332.53
2023-03-01T04:56:56.055Z,101330.81
2023-03-01T04:57:27.710Z,101329.06
2023-03-01T04:57:59.792Z,101330.75
2023-03-01T04:58:31.660Z,101325.56
2023-03-01T04:59:06.719Z,101335.88
2023-03-01T04:59:38.355Z,101330.75
2023-03-01T05:00:22.975Z,101333.25
2023-03-01T05:00:55.549Z,101334.06
2023-03-01T05:01:27.213Z,101330.66
2023-03-01T05:01:58.884Z,101334.16
2023-03-01T05:02:30.567Z,101331.56
2023-03-01T05:03:02.358Z,101334.09
2023-03-01T05:03:33.991Z,101328.94
2023-03-01T05:04:06.521Z,101326.34
2023-03-01T05:04:38.197Z,101332.31
2023-03-01T05:05:09.889Z,101332.38
2023-03-01T05:05:41.768Z,101328.06
2023-03-01T05:06:14.499Z,101330.66
2023-03-01T05:06:46.116Z,101334.03
2023-03-01T05:07:20.309Z,101334.00
2023-03-01T05:07:59.947Z,101334.00
2023-03-01T05:08:35.215Z,101335.75
2023-03-01T05:09:06.931Z,101329.72
2023-03-01T05:09:39.418Z,101327.16
2023-03-01T05:10:11.526Z,101335.78
2023-03-01T05:10:43.184Z,101330.66
2023-03-01T05:11:14.952Z,101330.66
2023-03-01T05:11:46.782Z,101332.34
2023-03-01T05:12:18.429Z,101329.75
2023-03-01T05:12:50.077Z,101333.22
2023-03-01T05:13:22.440Z,101329.72
2023-03-01T05:13:55.999Z,101331.50
2023-03-01T05:14:27.800Z,101337.47
2023-03-01T05:14:59.503Z,101331.53
2023-03-01T05:15:32.490Z,101333.19
2023-03-01T05:16:05.669Z,101334.06
2023-03-01T05:16:38.267Z,101334.06
2023-03-01T05:17:10.065Z,101331.47
2023-03-01T05:17:41.745Z,101328.88
2023-03-01T05:18:13.434Z,101329.72
2023-03-01T05:18:45.114Z,101335.78
2023-03-01T05:19:16.818Z,101339.22
2023-03-01T05:19:48.483Z,101331.47
2023-03-01T05:20:23.857Z,101335.78
2023-03-01T05:20:59.465Z,101329.78
2023-03-01T05:21:31.242Z,101333.22
2023-03-01T05:22:02.979Z,101341.81
2023-03-01T05:22:34.723Z,101342.69
2023-03-01T05:23:06.565Z,101346.16
2023-03-01T05:23:38.816Z,101337.56
2023-03-01T05:24:12.728Z,101336.72
2023-03-01T05:24:44.380Z,101334.13
2023-03-01T05:25:16.605Z,101334.16
2023-03-01T05:25:48.452Z,101338.41
2023-03-01T05:26:28.289Z,101335.78
2023-03-01T05:27:11.109Z,101336.63
2023-03-01T05:27:42.745Z,101334.13
2023-03-01T05:28:15.111Z,101337.56
2023-03-01T05:28:46.905Z,101334.16
2023-03-01T05:29:25.884Z,101327.28
2023-03-01T05:29:57.740Z,101331.63
2023-03-01T05:30:29.408Z,101329.06
2023-03-01T05:31:01.388Z,101320.41
2023-03-01T05:31:33.272Z,101327.34
2023-03-01T05:32:05.307Z,101331.66
2023-03-01T05:32:36.924Z,101332.53
2023-03-01T05:33:14.393Z,101324.72
2023-03-01T05:33:46.500Z,101329.91
2023-03-01T05:34:18.133Z,101332.59
2023-03-01T05:34:49.768Z,101329.97
2023-03-01T05:35:21.487Z,101335.09
2023-03-01T05:35:54.523Z,101335.06
2023-03-01T05:36:26.209Z,101335.94
2023-03-01T05:36:58.009Z,101334.19
2023-03-01T05:37:29.871Z,101329.91
2023-03-01T05:38:01.655Z,101330.75
2023-03-01T05:38:33.368Z,101336.84
2023-03-01T05:39:05.795Z,101329.94
2023-03-01T05:39:37.527Z,101327.38
2023-03-01T05:40:16.515Z,101332.59
2023-03-01T05:40:49.441Z,101336.84
2023-03-01T05:41:21.115Z,101338.63
2023-03-01T05:41:58.381Z,101339.47
2023-03-01T05:42:30.045Z,101336.00
2023-03-01T05:43:01.775Z,101342.00
2023-03-01T05:43:36.522Z,101333.38
2023-03-01T05:44:08.295Z,101339.38
2023-03-01T05:44:39.983Z,101335.94
2023-03-01T05:45:13.445Z,101337.63
2023-03-01T05:45:45.183Z,101333.25
2023-03-01T05:46:16.847Z,101336.75
2023-03-01T05:46:48.592Z,101338.44
2023-03-01T05:47:22.227Z,101334.13
2023-03-01T05:47:56.031Z,101343.53
2023-03-01T05:48:27.736Z,101335.81
2023-03-01T05:48:59.424Z,101329.41
2023-03-01T05:49:32.490Z,101335.66
2023-03-01T05:50:04.379Z,101334.97
2023-03-01T05:50:41.997Z,101341.38
2023-03-01T05:51:13.654Z,101332.13
2023-03-01T05:51:49.896Z,101332.19
2023-03-01T05:52:21.539Z,101333.16
2023-03-01T05:53:01.850Z,101332.31
2023-03-01T05:53:33.563Z,101333.16
2023-03-01T05:54:06.911Z,101331.50
2023-03-01T05:54:38.871Z,101335.81
2023-03-01T05:55:10.940Z,101333.19
2023-03-01T05:55:44.037Z,101333.25
2023-03-01T05:56:15.695Z,101340.16
2023-03-01T05:56:47.934Z,101328.97
2023-03-01T05:57:19.559Z,101333.31
2023-03-01T05:57:52.151Z,101326.44
2023-03-01T05:58:23.861Z,101332.50
2023-03-01T05:58:55.790Z,101335.09
2023-03-01T05:59:27.469Z,101335.16
2023-03-01T05:59:59.111Z,101332.63
2023-03-01T06:00:32.120Z,101334.34
2023-03-01T06:01:03.829Z,101340.38
2023-03-01T06:01:36.464Z,101337.78
2023-03-01T06:02:08.113Z,101342.97
2023-03-01T06:02:40.948Z,101337.06
2023-03-01T06:03:14.156Z,101342.13
2023-03-01T06:03:45.799Z,101344.75
2023-03-01T06:04:17.472Z,101340.44
2023-03-01T06:04:49.224Z,101346.50
2023-03-01T06:05:21.284Z,101347.44
2023-03-01T06:05:59.144Z,101348.28
2023-03-01T06:06:34.510Z,101348.31
2023-03-01T06:07:06.437Z,101349.19
2023-03-01T06:07:38.414Z,101349.19
2023-03-01T06:08:12.244Z,101349.25
2023-03-01T06:08:43.919Z,101347.59
2023-03-01T06:09:15.622Z,101358.75
2023-03-01T06:09:47.279Z,101360.44
2023-03-01T06:10:20.933Z,101350.94
2023-03-01T06:10:52.544Z,101356.97
2023-03-01T06:11:24.293Z,101357.00
2023-03-01T06:11:55.918Z,101350.16
2023-03-01T06:12:27.636Z,101354.47
2023-03-01T06:12:59.907Z,101351.88
2023-03-01T06:13:31.647Z,101361.25
2023-03-01T06:14:03.952Z,101365.56
2023-03-01T06:14:35.653Z,101368.16
2023-03-01T06:15:10.745Z,101367.25
2023-03-01T06:15:42.463Z,101366.38
2023-03-01T06:16:15.144Z,101365.53
2023-03-01T06:16:46.825Z,101367.22
2023-03-01T06:17:18.474Z,101367.22
2023-03-01T06:17:51.256Z,101368.03
2023-03-01T06:18:22.902Z,101362.91
2023-03-01T06:18:54.574Z,101368.91
2023-03-01T06:19:26.187Z,101364.56
2023-03-01T06:19:57.980Z,101370.59
2023-03-01T06:20:30.469Z,101369.75
2023-03-01T06:21:02.352Z,101363.72
2023-03-01T06:21:34.007Z,101366.25
2023-03-01T06:22:05.661Z,101361.97
2023-03-01T06:22:37.452Z,101368.84
2023-03-01T06:23:09.850Z,101365.41
2023-03-01T06:23:42.351Z,101365.41
2023-03-01T06:24:14.044Z,101374.88
2023-03-01T06:24:45.716Z,101367.13
2023-03-01T06:25:20.331Z,101363.63